Time;durP1;ratioP1;P1;durP2;ratioP2;P2;SDS_P1;SDS_P2;PMS_P1;PMS_P2;Temp;Humidity;BMP_temperature;BMP_pressure;BME280_temperature;BME280_humidity;BME280_pressure;Samples;Min_cycle;Max_cycle;Signal;HPM_P1;HPM_P2
2022/05/24 00:02:19;;;;;;;2.30;2.10;;;;;;;;;;5036043;28;20546;-66
2022/05/24 00:04:52;;;;;;;2.07;1.93;;;;;;;;;;5036058;28;20456;-65
2022/05/24 00:07:18;;;;;;;3.77;1.93;;;;;;;;;;5035967;28;20428;-65
2022/05/24 00:09:47;;;;;;;3.53;2.03;;;;;;;;;;5036018;28;20403;-65
2022/05/24 00:12:13;;;;;;;3.03;1.83;;;;;;;;;;5035887;28;20502;-65
2022/05/24 00:17:24;;;;;;;4.30;2.27;;;;;;;;;;5035920;28;20447;-65
2022/05/24 00:19:50;;;;;;;4.57;1.93;;;;;;;;;;5035800;28;20409;-65
2022/05/24 00:22:16;;;;;;;2.10;1.57;;;;;;;;;;5035743;28;20456;-65
2022/05/24 00:24:45;;;;;;;1.50;1.50;;;;;;;;;;5035556;28;20625;-65
2022/05/24 00:27:14;;;;;;;2.40;2.00;;;;;;;;;;5035680;28;20946;-65
2022/05/24 00:29:40;;;;;;;2.90;1.93;;;;;;;;;;5035610;28;20409;-66
2022/05/24 00:32:06;;;;;;;3.43;2.07;;;;;;;;;;5035522;28;20457;-66
2022/05/24 00:34:34;;;;;;;4.77;1.93;;;;;;;;;;5035236;28;20444;-65
2022/05/24 00:37:00;;;;;;;3.43;1.70;;;;;;;;;;5035631;28;20398;-65
2022/05/24 00:39:26;;;;;;;1.90;1.80;;;;;;;;;;5035387;28;20409;-66
2022/05/24 00:41:57;;;;;;;1.73;1.60;;;;;;;;;;5035304;28;20401;-65
2022/05/24 00:44:37;;;;;;;2.33;2.10;;;;;;;;;;5035516;28;20554;-65
2022/05/24 00:47:31;;;;;;;8.43;1.70;;;;;;;;;;5035272;28;20427;-65
2022/05/24 00:49:59;;;;;;;2.43;1.60;;;;;;;;;;5033780;28;20438;-66
2022/05/24 00:52:52;;;;;;;2.50;1.57;;;;;;;;;;5035182;28;20440;-65
2022/05/24 00:55:22;;;;;;;2.40;1.53;;;;;;;;;;5033164;28;20420;-65
2022/05/24 00:57:53;;;;;;;1.90;1.90;;;;;;;;;;5035080;28;20969;-64
2022/05/24 01:00:21;;;;;;;1.90;1.80;;;;;;;;;;5035028;28;20400;-65
2022/05/24 01:02:48;;;;;;;4.50;1.70;;;;;;;;;;5034972;28;20476;-65
2022/05/24 01:05:19;;;;;;;1.30;1.30;;;;;;;;;;5034954;28;20513;-65
2022/05/24 01:07:48;;;;;;;2.20;1.60;;;;;;;;;;5034963;28;20407;-65
2022/05/24 01:10:29;;;;;;;1.47;1.37;;;;;;;;;;5034847;28;20467;-65
2022/05/24 01:13:00;;;;;;;2.50;1.70;;;;;;;;;;5034832;28;20401;-65
2022/05/24 01:15:27;;;;;;;1.40;1.30;;;;;;;;;;5034820;28;20423;-65
2022/05/24 01:17:54;;;;;;;2.60;1.97;;;;;;;;;;5034751;28;20415;-66
2022/05/24 01:20:20;;;;;;;1.50;1.43;;;;;;;;;;5034671;28;20488;-65
2022/05/24 01:23:05;;;;;;;6.07;1.80;;;;;;;;;;5034861;28;20411;-65
2022/05/24 01:25:35;;;;;;;2.50;1.43;;;;;;;;;;5034717;28;20452;-66
2022/05/24 01:28:05;;;;;;;1.47;1.47;;;;;;;;;;5034505;28;20960;-65
2022/05/24 01:30:31;;;;;;;2.93;1.33;;;;;;;;;;5034516;28;20821;-65
2022/05/24 01:38:27;;;;;;;2.30;1.60;;;;;;;;;;5034648;28;21018;-65
2022/05/24 01:40:55;;;;;;;3.27;1.70;;;;;;;;;;5034271;28;20420;-65
2022/05/24 01:43:22;;;;;;;1.57;1.47;;;;;;;;;;5034221;28;20783;-65
2022/05/24 01:45:56;;;;;;;1.47;1.40;;;;;;;;;;5033647;28;20471;-65
2022/05/24 01:48:25;;;;;;;2.93;1.30;;;;;;;;;;5034220;28;20414;-64
2022/05/24 01:50:54;;;;;;;3.90;1.53;;;;;;;;;;5034154;28;20407;-64
2022/05/24 01:53:22;;;;;;;2.00;1.20;;;;;;;;;;5034054;28;20415;-65
2022/05/24 01:55:51;;;;;;;1.80;1.70;;;;;;;;;;5033988;28;20487;-65
2022/05/24 01:58:18;;;;;;;2.37;1.20;;;;;;;;;;5033901;28;20905;-65
2022/05/24 02:01:05;;;;;;;4.60;1.50;;;;;;;;;;5033912;28;20887;-65
2022/05/24 02:03:34;;;;;;;6.23;1.90;;;;;;;;;;5033723;28;20439;-65
2022/05/24 02:06:00;;;;;;;6.20;1.77;;;;;;;;;;5033833;28;20601;-65
2022/05/24 02:08:26;;;;;;;2.70;1.60;;;;;;;;;;5033803;28;20428;-65
2022/05/24 02:11:04;;;;;;;4.93;1.70;;;;;;;;;;5033841;28;20902;-67
2022/05/24 02:13:32;;;;;;;2.97;1.83;;;;;;;;;;5033941;28;20431;-65
2022/05/24 02:16:03;;;;;;;6.33;1.73;;;;;;;;;;5033734;28;20401;-65
2022/05/24 02:18:32;;;;;;;8.70;1.43;;;;;;;;;;5033622;28;20399;-65
2022/05/24 02:21:03;;;;;;;1.50;1.50;;;;;;;;;;5033516;28;20494;-65
2022/05/24 02:23:29;;;;;;;1.60;1.50;;;;;;;;;;5033503;28;20399;-65
2022/05/24 02:25:56;;;;;;;1.50;1.33;;;;;;;;;;5033512;28;20830;-65
2022/05/24 02:28:25;;;;;;;3.73;1.50;;;;;;;;;;5033563;28;20413;-65
2022/05/24 02:30:54;;;;;;;2.70;1.77;;;;;;;;;;5033606;28;20442;-65
2022/05/24 02:33:20;;;;;;;1.90;1.47;;;;;;;;;;5033559;28;20902;-66
2022/05/24 02:35:46;;;;;;;1.70;1.60;;;;;;;;;;5033420;28;20492;-65
2022/05/24 02:38:18;;;;;;;2.70;1.50;;;;;;;;;;5033443;28;20753;-65
2022/05/24 02:43:29;;;;;;;1.80;1.63;;;;;;;;;;5033667;28;20470;-65
2022/05/24 02:45:55;;;;;;;1.73;1.67;;;;;;;;;;5033233;28;20470;-66
2022/05/24 02:48:21;;;;;;;4.83;1.70;;;;;;;;;;5033367;28;20410;-65
2022/05/24 02:50:47;;;;;;;1.67;1.40;;;;;;;;;;5033368;28;20416;-64
2022/05/24 02:53:13;;;;;;;1.57;1.47;;;;;;;;;;5033247;28;20420;-65
2022/05/24 02:55:39;;;;;;;2.00;1.27;;;;;;;;;;5033301;28;20454;-65
2022/05/24 02:58:05;;;;;;;1.93;1.37;;;;;;;;;;5036244;28;20434;-65
2022/05/24 03:00:32;;;;;;;1.30;1.23;;;;;;;;;;5037331;28;20497;-65
2022/05/24 03:02:58;;;;;;;1.57;1.47;;;;;;;;;;5037149;28;20510;-64
2022/05/24 03:05:24;;;;;;;1.30;1.20;;;;;;;;;;5037417;28;20438;-65
2022/05/24 03:10:35;;;;;;;1.37;1.30;;;;;;;;;;5037528;28;20414;-65
2022/05/24 03:15:47;;;;;;;1.70;1.60;;;;;;;;;;5037311;28;20446;-64
2022/05/24 03:18:13;;;;;;;4.47;1.10;;;;;;;;;;5036991;28;20403;-65
2022/05/24 03:20:40;;;;;;;1.80;1.57;;;;;;;;;;5036998;28;20454;-64
2022/05/24 03:23:06;;;;;;;2.93;1.40;;;;;;;;;;5036991;28;20419;-64
2022/05/24 03:25:33;;;;;;;3.50;1.20;;;;;;;;;;5036797;28;20454;-65
2022/05/24 03:28:00;;;;;;;2.73;1.10;;;;;;;;;;5019017;28;20996;-64
2022/05/24 03:30:26;;;;;;;2.50;1.27;;;;;;;;;;5018979;28;20906;-64
2022/05/24 03:32:53;;;;;;;3.70;0.97;;;;;;;;;;5036692;28;20408;-65
2022/05/24 03:35:19;;;;;;;1.27;1.17;;;;;;;;;;5036685;28;20408;-65
2022/05/24 03:37:45;;;;;;;1.97;1.20;;;;;;;;;;5036638;28;20411;-65
2022/05/24 03:40:11;;;;;;;0.80;0.80;;;;;;;;;;5036670;28;20423;-66
2022/05/24 03:42:38;;;;;;;1.13;1.03;;;;;;;;;;5036534;28;20399;-65
2022/05/24 03:45:05;;;;;;;2.40;1.50;;;;;;;;;;5036377;28;20475;-65
2022/05/24 03:47:32;;;;;;;3.03;1.40;;;;;;;;;;5036700;28;20760;-65
2022/05/24 03:49:58;;;;;;;6.43;1.10;;;;;;;;;;5036351;28;20411;-65
2022/05/24 03:52:24;;;;;;;1.53;1.13;;;;;;;;;;5036417;28;20446;-65
2022/05/24 03:54:50;;;;;;;1.10;1.00;;;;;;;;;;5036336;28;20882;-66
2022/05/24 04:00:01;;;;;;;2.70;2.50;;;;;;;;;;5036535;28;20564;-65
2022/05/24 04:02:27;;;;;;;3.23;1.10;;;;;;;;;;5009502;28;20520;-66
2022/05/24 04:04:53;;;;;;;2.30;1.20;;;;;;;;;;5016281;28;20463;-65
2022/05/24 04:07:19;;;;;;;1.30;1.20;;;;;;;;;;5016248;28;20492;-65
2022/05/24 04:09:45;;;;;;;3.03;1.03;;;;;;;;;;5015684;28;20947;-65
2022/05/24 04:12:11;;;;;;;3.80;3.17;;;;;;;;;;5016209;28;20414;-65
2022/05/24 04:14:37;;;;;;;3.53;1.30;;;;;;;;;;5016125;28;20412;-65
2022/05/24 04:17:03;;;;;;;1.37;1.27;;;;;;;;;;5016174;28;20512;-65
2022/05/24 04:19:29;;;;;;;3.90;1.10;;;;;;;;;;5016115;28;20393;-66
2022/05/24 04:21:55;;;;;;;3.20;1.13;;;;;;;;;;5016022;28;20899;-65
2022/05/24 04:24:21;;;;;;;1.27;1.10;;;;;;;;;;5015955;28;20496;-65
2022/05/24 04:26:48;;;;;;;1.40;1.30;;;;;;;;;;5015877;28;20946;-65
2022/05/24 04:29:14;;;;;;;1.50;1.33;;;;;;;;;;5015872;28;20745;-65
2022/05/24 04:31:40;;;;;;;1.30;1.30;;;;;;;;;;5015849;28;20424;-65
2022/05/24 04:34:06;;;;;;;3.20;1.27;;;;;;;;;;5015830;28;20894;-64
2022/05/24 04:36:32;;;;;;;0.93;0.93;;;;;;;;;;5015795;28;20880;-65
2022/05/24 04:38:59;;;;;;;2.73;2.53;;;;;;;;;;5008171;28;20405;-65
2022/05/24 04:44:09;;;;;;;0.90;0.90;;;;;;;;;;5015611;28;20892;-65
2022/05/24 04:49:20;;;;;;;2.40;1.00;;;;;;;;;;5015790;28;20405;-65
2022/05/24 04:51:46;;;;;;;2.97;1.20;;;;;;;;;;5015449;28;20911;-64
2022/05/24 04:54:12;;;;;;;2.90;1.30;;;;;;;;;;5015476;28;20413;-65
2022/05/24 04:56:38;;;;;;;8.53;1.20;;;;;;;;;;5015420;28;20881;-65
2022/05/24 04:59:04;;;;;;;3.10;1.20;;;;;;;;;;5015586;28;20412;-64
2022/05/24 05:01:31;;;;;;;1.00;1.00;;;;;;;;;;5016282;28;20408;-64
2022/05/24 05:03:57;;;;;;;2.60;1.70;;;;;;;;;;5035007;28;20449;-65
2022/05/24 05:06:23;;;;;;;3.17;2.93;;;;;;;;;;5034892;28;20510;-65
2022/05/24 05:08:49;;;;;;;1.87;1.37;;;;;;;;;;5034924;28;20401;-64
2022/05/24 05:11:15;;;;;;;2.50;1.40;;;;;;;;;;5034752;28;20886;-65
2022/05/24 05:13:41;;;;;;;3.90;1.40;;;;;;;;;;5034798;28;20407;-64
2022/05/24 05:16:07;;;;;;;3.50;1.50;;;;;;;;;;5034794;28;20416;-64
2022/05/24 05:18:33;;;;;;;3.43;1.37;;;;;;;;;;5034711;28;20432;-64
2022/05/24 05:21:00;;;;;;;1.60;1.50;;;;;;;;;;5033671;28;20468;-64
2022/05/24 05:23:26;;;;;;;1.10;1.10;;;;;;;;;;5034573;28;20405;-65
2022/05/24 05:25:52;;;;;;;1.97;1.30;;;;;;;;;;5034512;28;20468;-65
2022/05/24 05:28:19;;;;;;;2.33;1.20;;;;;;;;;;5034539;28;20415;-66
2022/05/24 05:33:30;;;;;;;1.47;1.33;;;;;;;;;;5034748;28;20764;-67
2022/05/24 05:35:56;;;;;;;1.17;1.17;;;;;;;;;;5034524;28;20907;-66
2022/05/24 05:38:22;;;;;;;2.67;1.40;;;;;;;;;;5034363;28;20399;-66
2022/05/24 05:40:52;;;;;;;4.03;1.00;;;;;;;;;;5034229;28;20408;-66
2022/05/24 05:43:30;;;;;;;0.90;0.90;;;;;;;;;;5090983;27;20542;-67
2022/05/24 05:46:00;;;;;;;2.60;0.70;;;;;;;;;;5091040;28;20409;-67
2022/05/24 05:48:27;;;;;;;0.80;0.80;;;;;;;;;;5091035;28;20508;-65
2022/05/24 05:50:53;;;;;;;0.60;0.60;;;;;;;;;;5090935;28;20504;-66
2022/05/24 05:53:20;;;;;;;0.90;0.90;;;;;;;;;;5090786;28;20397;-66
2022/05/24 05:55:46;;;;;;;0.60;0.60;;;;;;;;;;5090831;28;20402;-63
2022/05/24 05:58:12;;;;;;;0.53;0.53;;;;;;;;;;5090748;28;20413;-65
2022/05/24 06:00:39;;;;;;;0.60;0.60;;;;;;;;;;5090730;28;20972;-64
2022/05/24 06:03:05;;;;;;;0.63;0.63;;;;;;;;;;5090703;28;20472;-64
2022/05/24 06:05:32;;;;;;;1.90;0.50;;;;;;;;;;5090637;28;20398;-64
2022/05/24 06:07:58;;;;;;;1.43;0.60;;;;;;;;;;5090502;28;20539;-64
2022/05/24 06:10:24;;;;;;;0.53;0.53;;;;;;;;;;5090510;28;20401;-65
2022/05/24 06:12:51;;;;;;;2.07;0.80;;;;;;;;;;5090486;28;20604;-66
2022/05/24 06:15:17;;;;;;;0.40;0.40;;;;;;;;;;5090525;28;20512;-66
2022/05/24 06:17:48;;;;;;;5.03;0.60;;;;;;;;;;5089090;28;20557;-66
2022/05/24 06:20:14;;;;;;;0.70;0.40;;;;;;;;;;5090380;28;20414;-66
2022/05/24 06:22:40;;;;;;;0.50;0.50;;;;;;;;;;5088908;28;20477;-66
2022/05/24 06:25:06;;;;;;;0.50;0.50;;;;;;;;;;5090240;28;20400;-66
2022/05/24 06:27:32;;;;;;;0.40;0.40;;;;;;;;;;5090128;28;20413;-66
2022/05/24 06:29:58;;;;;;;0.50;0.50;;;;;;;;;;5090132;28;20950;-64
2022/05/24 06:32:24;;;;;;;2.00;0.40;;;;;;;;;;5090276;28;20411;-63
2022/05/24 06:34:52;;;;;;;0.97;0.40;;;;;;;;;;5090206;28;20491;-63
2022/05/24 06:37:18;;;;;;;1.03;0.60;;;;;;;;;;5090081;28;20399;-62
2022/05/24 06:39:45;;;;;;;1.17;0.40;;;;;;;;;;5090115;28;20448;-63
2022/05/24 06:42:11;;;;;;;2.77;0.80;;;;;;;;;;5089727;28;20475;-63
2022/05/24 06:44:37;;;;;;;0.43;0.40;;;;;;;;;;5089959;28;20427;-63
2022/05/24 06:47:03;;;;;;;4.43;0.60;;;;;;;;;;5089857;28;20399;-64
2022/05/24 06:49:29;;;;;;;1.53;0.60;;;;;;;;;;5089921;28;20412;-64
2022/05/24 06:51:55;;;;;;;0.50;0.50;;;;;;;;;;5089772;28;20408;-65
2022/05/24 06:54:21;;;;;;;0.60;0.60;;;;;;;;;;5077827;28;20482;-65
2022/05/24 06:56:47;;;;;;;0.60;0.60;;;;;;;;;;5076280;28;20900;-64
2022/05/24 07:04:41;;;;;;;3.17;0.60;;;;;;;;;;5076099;28;20842;-64
2022/05/24 07:07:07;;;;;;;0.80;0.70;;;;;;;;;;5076076;28;20516;-65
2022/05/24 07:09:33;;;;;;;10.07;0.93;;;;;;;;;;5076050;28;20407;-64
2022/05/24 07:12:00;;;;;;;0.57;0.57;;;;;;;;;;5075914;28;20414;-63
2022/05/24 07:14:26;;;;;;;0.70;0.70;;;;;;;;;;5075855;28;20442;-65
2022/05/24 07:16:52;;;;;;;0.80;0.80;;;;;;;;;;5074578;28;20424;-64
2022/05/24 07:19:18;;;;;;;3.03;0.67;;;;;;;;;;5075867;28;20780;-64
2022/05/24 07:21:44;;;;;;;0.77;0.77;;;;;;;;;;5075611;28;21027;-63
2022/05/24 07:24:10;;;;;;;1.87;0.70;;;;;;;;;;5075798;28;20502;-64
2022/05/24 07:26:36;;;;;;;1.40;0.80;;;;;;;;;;5075713;28;20398;-63
2022/05/24 07:29:03;;;;;;;0.80;0.80;;;;;;;;;;5075640;28;20532;-66
2022/05/24 07:31:29;;;;;;;1.47;0.73;;;;;;;;;;5075650;28;20794;-62
2022/05/24 07:33:58;;;;;;;0.83;0.83;;;;;;;;;;5075473;28;20418;-64
2022/05/24 07:36:24;;;;;;;4.63;0.73;;;;;;;;;;5075525;28;20461;-64
2022/05/24 07:38:50;;;;;;;2.07;0.90;;;;;;;;;;5074211;28;20451;-64
2022/05/24 07:46:45;;;;;;;0.70;0.70;;;;;;;;;;5075323;28;20406;-64
2022/05/24 07:49:11;;;;;;;1.00;0.80;;;;;;;;;;5075232;28;20416;-64
2022/05/24 07:51:37;;;;;;;0.60;0.60;;;;;;;;;;5075202;28;20875;-64
2022/05/24 07:54:03;;;;;;;2.40;0.90;;;;;;;;;;5075337;28;20431;-63
2022/05/24 07:56:29;;;;;;;0.60;0.50;;;;;;;;;;5075059;28;20458;-64
2022/05/24 07:58:55;;;;;;;0.77;0.77;;;;;;;;;;5075056;28;20919;-65
2022/05/24 08:01:23;;;;;;;0.80;0.80;;;;;;;;;;5074791;28;20492;-64
2022/05/24 08:03:49;;;;;;;2.50;0.80;;;;;;;;;;5074900;28;20409;-63
2022/05/24 08:06:17;;;;;;;2.10;0.90;;;;;;;;;;5073805;28;20409;-64
2022/05/24 08:08:43;;;;;;;1.40;0.93;;;;;;;;;;5074636;28;20463;-63
2022/05/24 08:11:09;;;;;;;3.20;1.10;;;;;;;;;;5074653;28;20480;-63
2022/05/24 08:13:36;;;;;;;1.00;1.00;;;;;;;;;;5074653;28;20416;-63
2022/05/24 08:16:03;;;;;;;2.20;0.80;;;;;;;;;;5074588;28;20767;-63
2022/05/24 08:18:29;;;;;;;2.10;0.90;;;;;;;;;;5074552;28;20414;-64
2022/05/24 08:20:55;;;;;;;4.60;1.50;;;;;;;;;;5073278;28;20912;-64
2022/05/24 08:23:22;;;;;;;0.80;0.80;;;;;;;;;;5074291;28;20476;-62
2022/05/24 08:25:49;;;;;;;1.20;1.10;;;;;;;;;;5074521;28;20492;-63
2022/05/24 08:28:15;;;;;;;1.50;1.07;;;;;;;;;;5074370;28;20429;-63
2022/05/24 08:30:41;;;;;;;1.40;1.23;;;;;;;;;;5073467;28;20787;-62
2022/05/24 08:33:08;;;;;;;1.43;1.30;;;;;;;;;;5074312;28;20418;-64
2022/05/24 08:35:35;;;;;;;0.90;0.90;;;;;;;;;;5074455;28;20441;-63
2022/05/24 08:38:01;;;;;;;5.53;0.90;;;;;;;;;;5074371;28;20887;-63
2022/05/24 08:40:28;;;;;;;1.03;0.90;;;;;;;;;;5074340;28;20412;-62
2022/05/24 08:43:13;;;;;;;1.70;0.90;;;;;;;;;;5072679;28;20489;-63
2022/05/24 08:48:52;;;;;;;3.93;1.40;;;;;;;;;;5074285;28;20409;-63
2022/05/24 08:51:27;;;;;;;1.20;0.70;;;;;;;;;;5073970;28;20412;-62
2022/05/24 08:53:55;;;;;;;4.03;0.90;;;;;;;;;;5073945;28;20400;-62
2022/05/24 08:56:31;;;;;;;0.60;0.60;;;;;;;;;;5073950;28;20414;-63
2022/05/24 08:59:00;;;;;;;1.20;0.90;;;;;;;;;;5073934;28;20741;-62
2022/05/24 09:01:32;;;;;;;1.13;0.80;;;;;;;;;;5073789;28;20460;-64
2022/05/24 09:03:59;;;;;;;0.70;0.70;;;;;;;;;;5073690;28;20441;-63
2022/05/24 09:06:31;;;;;;;1.73;1.00;;;;;;;;;;5072424;28;20421;-62
2022/05/24 09:09:01;;;;;;;1.93;0.63;;;;;;;;;;5073631;28;21019;-65
2022/05/24 09:11:50;;;;;;;0.50;0.50;;;;;;;;;;5073794;28;20844;-63
2022/05/24 09:14:16;;;;;;;0.60;0.60;;;;;;;;;;5073598;28;20865;-63
2022/05/24 09:16:47;;;;;;;0.63;0.63;;;;;;;;;;5073485;28;20415;-63
2022/05/24 09:19:23;;;;;;;0.70;0.70;;;;;;;;;;5073616;28;20487;-64
2022/05/24 09:21:52;;;;;;;2.30;0.63;;;;;;;;;;5073476;28;20628;-63
2022/05/24 09:24:37;;;;;;;0.73;0.70;;;;;;;;;;5072218;28;20431;-64
2022/05/24 09:27:07;;;;;;;1.13;0.70;;;;;;;;;;5073451;28;20414;-64
2022/05/24 09:29:33;;;;;;;0.80;0.80;;;;;;;;;;5073479;28;20454;-64
2022/05/24 09:32:04;;;;;;;0.70;0.63;;;;;;;;;;5072328;28;20426;-63
2022/05/24 09:34:31;;;;;;;0.90;0.50;;;;;;;;;;5073636;28;20398;-63
2022/05/24 09:36:58;;;;;;;0.80;0.80;;;;;;;;;;5073384;28;20945;-64
2022/05/24 09:39:36;;;;;;;3.30;0.60;;;;;;;;;;5073405;28;20410;-64
2022/05/24 09:42:02;;;;;;;0.80;0.80;;;;;;;;;;5073121;28;20484;-63
2022/05/24 09:44:48;;;;;;;1.90;0.70;;;;;;;;;;5073338;28;20499;-64
2022/05/24 09:47:21;;;;;;;1.03;0.60;;;;;;;;;;5073052;28;20864;-64
2022/05/24 09:49:47;;;;;;;3.80;0.70;;;;;;;;;;5073337;28;20483;-64
2022/05/24 09:52:14;;;;;;;1.30;0.70;;;;;;;;;;5073215;28;20443;-64
2022/05/24 09:54:56;;;;;;;0.80;0.80;;;;;;;;;;5073168;28;20399;-63
2022/05/24 09:57:24;;;;;;;0.60;0.60;;;;;;;;;;5073238;28;20938;-63
2022/05/24 09:59:58;;;;;;;1.13;0.80;;;;;;;;;;5073184;28;20457;-63
2022/05/24 10:02:26;;;;;;;0.90;0.90;;;;;;;;;;5073312;28;20483;-63
2022/05/24 10:04:52;;;;;;;0.70;0.70;;;;;;;;;;5073108;28;20456;-63
2022/05/24 10:07:23;;;;;;;0.43;0.43;;;;;;;;;;5071771;28;20428;-63
2022/05/24 10:10:10;;;;;;;0.60;0.60;;;;;;;;;;5073053;28;20740;-64
2022/05/24 10:12:42;;;;;;;5.70;0.70;;;;;;;;;;5073050;28;20909;-62
2022/05/24 10:15:26;;;;;;;1.53;0.53;;;;;;;;;;5073058;28;20413;-63
2022/05/24 10:18:09;;;;;;;0.50;0.50;;;;;;;;;;5073091;28;20440;-63
2022/05/24 10:20:54;;;;;;;1.10;0.67;;;;;;;;;;5073028;28;20432;-63
2022/05/24 10:23:29;;;;;;;0.50;0.50;;;;;;;;;;5072684;28;20476;-63
2022/05/24 10:25:55;;;;;;;0.60;0.60;;;;;;;;;;5071967;28;20947;-63
2022/05/24 10:28:27;;;;;;;0.70;0.60;;;;;;;;;;5073572;28;20536;-63
2022/05/24 10:31:00;;;;;;;0.50;0.50;;;;;;;;;;5076659;28;20923;-64
2022/05/24 10:39:31;;;;;;;0.70;0.70;;;;;;;;;;5039241;28;20467;-62
2022/05/24 10:41:59;;;;;;;0.70;0.60;;;;;;;;;;5076142;28;20484;-63
2022/05/24 10:44:31;;;;;;;0.70;0.50;;;;;;;;;;5075156;28;20422;-63
2022/05/24 10:47:03;;;;;;;0.40;0.40;;;;;;;;;;5076400;28;20902;-63
2022/05/24 10:49:44;;;;;;;0.70;0.70;;;;;;;;;;5076341;28;20407;-63
2022/05/24 10:52:17;;;;;;;0.63;0.63;;;;;;;;;;5076515;28;20738;-63
2022/05/24 10:54:50;;;;;;;0.50;0.50;;;;;;;;;;5076263;28;20402;-63
2022/05/24 10:57:18;;;;;;;0.70;0.50;;;;;;;;;;5076055;28;20400;-63
2022/05/24 10:59:47;;;;;;;0.50;0.50;;;;;;;;;;5076054;28;20407;-63
2022/05/24 11:02:22;;;;;;;1.93;0.90;;;;;;;;;;5075932;28;20467;-63
2022/05/24 11:05:07;;;;;;;1.80;0.60;;;;;;;;;;5076001;28;20497;-63
2022/05/24 11:07:34;;;;;;;0.60;0.60;;;;;;;;;;5075704;28;20406;-64
2022/05/24 11:10:05;;;;;;;0.80;0.80;;;;;;;;;;5075582;28;20415;-63
2022/05/24 11:12:33;;;;;;;1.40;0.50;;;;;;;;;;5074562;28;20416;-63
2022/05/24 11:15:09;;;;;;;1.33;0.63;;;;;;;;;;5075840;28;20421;-63
2022/05/24 11:17:36;;;;;;;5.03;0.70;;;;;;;;;;5075848;28;20408;-64
2022/05/24 11:20:04;;;;;;;2.80;0.63;;;;;;;;;;5076067;28;20411;-63
2022/05/24 11:22:35;;;;;;;1.03;0.60;;;;;;;;;;5075586;28;20591;-66
2022/05/24 11:25:19;;;;;;;0.67;0.67;;;;;;;;;;5075578;28;20393;-63
2022/05/24 11:28:05;;;;;;;1.27;0.57;;;;;;;;;;5075611;28;20537;-63
2022/05/24 11:30:31;;;;;;;2.20;0.70;;;;;;;;;;5063893;28;20472;-63
2022/05/24 11:33:10;;;;;;;1.90;0.70;;;;;;;;;;5075531;28;20499;-63
2022/05/24 11:35:41;;;;;;;0.60;0.60;;;;;;;;;;5075460;28;20418;-66
2022/05/24 11:38:10;;;;;;;1.67;0.60;;;;;;;;;;5075480;28;20403;-63
2022/05/24 11:40:40;;;;;;;0.40;0.40;;;;;;;;;;5075371;28;20436;-66
2022/05/24 11:43:08;;;;;;;0.60;0.60;;;;;;;;;;5073804;28;20489;-63
2022/05/24 11:45:34;;;;;;;0.40;0.40;;;;;;;;;;5074190;28;20425;-64
2022/05/24 11:48:02;;;;;;;0.50;0.50;;;;;;;;;;5075218;28;20414;-63
2022/05/24 11:50:31;;;;;;;1.40;0.50;;;;;;;;;;5075243;28;20440;-64
2022/05/24 11:53:08;;;;;;;1.17;0.40;;;;;;;;;;5073858;28;20427;-65
2022/05/24 11:55:42;;;;;;;0.50;0.50;;;;;;;;;;5073872;28;20416;-64
2022/05/24 11:58:21;;;;;;;2.40;0.60;;;;;;;;;;5074986;28;20503;-64
2022/05/24 12:00:58;;;;;;;0.60;0.60;;;;;;;;;;5075002;28;20405;-63
2022/05/24 12:09:12;;;;;;;1.13;0.60;;;;;;;;;;5074963;28;20420;-66
2022/05/24 12:11:39;;;;;;;0.50;0.50;;;;;;;;;;5074696;28;20874;-66
2022/05/24 12:14:11;;;;;;;1.53;0.60;;;;;;;;;;5074777;28;20411;-67
2022/05/24 12:16:45;;;;;;;1.23;0.60;;;;;;;;;;5074649;28;20908;-66
2022/05/24 12:19:12;;;;;;;8.13;1.27;;;;;;;;;;5074637;28;20411;-67
2022/05/24 12:21:44;;;;;;;2.60;0.70;;;;;;;;;;5074451;28;20968;-66
2022/05/24 12:24:31;;;;;;;0.60;0.60;;;;;;;;;;5074504;28;20422;-65
2022/05/24 12:27:06;;;;;;;0.80;0.60;;;;;;;;;;5073143;28;20420;-64
2022/05/24 12:29:33;;;;;;;0.50;0.50;;;;;;;;;;5074369;28;20778;-63
2022/05/24 12:32:06;;;;;;;1.10;1.10;;;;;;;;;;5074473;28;20519;-66
2022/05/24 12:34:32;;;;;;;0.53;0.53;;;;;;;;;;5074337;28;20437;-66
2022/05/24 12:36:59;;;;;;;0.70;0.60;;;;;;;;;;5074233;28;20412;-62
2022/05/24 12:39:26;;;;;;;1.83;0.80;;;;;;;;;;5074163;28;20507;-65
2022/05/24 12:41:56;;;;;;;0.80;0.80;;;;;;;;;;5073935;28;20485;-65
2022/05/24 12:44:24;;;;;;;2.93;0.60;;;;;;;;;;5074014;28;20560;-65
2022/05/24 12:46:50;;;;;;;0.50;0.50;;;;;;;;;;5074161;28;20401;-64
2022/05/24 12:49:17;;;;;;;0.80;0.50;;;;;;;;;;5072799;28;20502;-65
2022/05/24 12:51:43;;;;;;;0.50;0.50;;;;;;;;;;5073590;28;20412;-65
2022/05/24 12:54:14;;;;;;;2.63;0.70;;;;;;;;;;5073920;28;20442;-64
2022/05/24 12:56:51;;;;;;;2.00;0.50;;;;;;;;;;5073879;28;20406;-64
2022/05/24 12:59:17;;;;;;;0.70;0.70;;;;;;;;;;5073849;28;20417;-65
2022/05/24 13:01:43;;;;;;;2.77;0.50;;;;;;;;;;5073774;28;20461;-65
2022/05/24 13:04:15;;;;;;;0.80;0.57;;;;;;;;;;5072454;28;20441;-65
2022/05/24 13:06:42;;;;;;;1.27;0.63;;;;;;;;;;5073859;28;20420;-66
2022/05/24 13:09:11;;;;;;;0.50;0.50;;;;;;;;;;5073713;28;20454;-67
2022/05/24 13:11:38;;;;;;;0.90;0.60;;;;;;;;;;5073712;28;20426;-65
2022/05/24 13:14:05;;;;;;;2.80;0.67;;;;;;;;;;5073585;28;20412;-65
2022/05/24 13:16:33;;;;;;;0.50;0.50;;;;;;;;;;5073701;28;20404;-69
2022/05/24 13:18:59;;;;;;;0.50;0.50;;;;;;;;;;5073472;28;20417;-66
2022/05/24 13:21:25;;;;;;;2.93;0.67;;;;;;;;;;5072212;28;20429;-65
2022/05/24 13:24:06;;;;;;;0.67;0.67;;;;;;;;;;5073632;28;20422;-65
2022/05/24 13:26:32;;;;;;;2.10;0.63;;;;;;;;;;5073553;28;20411;-66
2022/05/24 13:29:18;;;;;;;0.50;0.40;;;;;;;;;;5072049;28;20439;-65
2022/05/24 13:34:30;;;;;;;0.60;0.60;;;;;;;;;;5073518;28;20402;-65
2022/05/24 13:37:01;;;;;;;6.13;0.80;;;;;;;;;;5073388;28;20427;-66
2022/05/24 13:39:28;;;;;;;0.60;0.60;;;;;;;;;;5073437;28;20391;-65
2022/05/24 13:42:00;;;;;;;0.50;0.50;;;;;;;;;;5073182;28;20841;-66
2022/05/24 13:44:34;;;;;;;0.70;0.60;;;;;;;;;;5073049;28;20427;-67
2022/05/24 13:47:00;;;;;;;0.50;0.50;;;;;;;;;;5073236;28;20486;-65
2022/05/24 13:49:31;;;;;;;0.43;0.43;;;;;;;;;;5073338;28;20441;-67
2022/05/24 13:52:16;;;;;;;0.50;0.50;;;;;;;;;;5073258;28;20500;-67
2022/05/24 13:54:42;;;;;;;3.17;0.70;;;;;;;;;;5071997;28;20428;-66
2022/05/24 13:57:26;;;;;;;2.00;0.70;;;;;;;;;;5073183;28;20401;-66
2022/05/24 14:00:05;;;;;;;1.80;0.80;;;;;;;;;;5073349;28;20777;-67
2022/05/24 14:02:31;;;;;;;1.10;0.60;;;;;;;;;;5073060;28;20504;-68
2022/05/24 14:04:58;;;;;;;0.90;0.50;;;;;;;;;;5076627;28;20401;-66
2022/05/24 14:07:24;;;;;;;0.87;0.60;;;;;;;;;;5077433;28;20439;-65
2022/05/24 14:09:50;;;;;;;1.40;0.83;;;;;;;;;;5077145;28;20403;-66
2022/05/24 14:12:16;;;;;;;0.60;0.60;;;;;;;;;;5077071;28;20950;-67
2022/05/24 14:14:46;;;;;;;0.60;0.50;;;;;;;;;;5077047;28;20891;-65
2022/05/24 14:17:16;;;;;;;4.10;0.67;;;;;;;;;;5076975;28;20404;-66
2022/05/24 14:19:42;;;;;;;0.70;0.70;;;;;;;;;;5076982;28;20899;-65
2022/05/24 14:22:08;;;;;;;0.50;0.50;;;;;;;;;;5076599;28;20470;-67
2022/05/24 14:24:40;;;;;;;2.43;0.73;;;;;;;;;;5075520;28;20917;-65
2022/05/24 14:27:07;;;;;;;1.83;0.60;;;;;;;;;;5076707;28;20408;-65
2022/05/24 14:29:34;;;;;;;0.40;0.40;;;;;;;;;;5076613;28;20416;-65
2022/05/24 14:32:00;;;;;;;1.30;0.73;;;;;;;;;;5076625;28;20416;-65
2022/05/24 14:34:26;;;;;;;1.53;0.70;;;;;;;;;;5076681;28;20405;-65
2022/05/24 14:36:53;;;;;;;1.43;0.50;;;;;;;;;;5076601;28;20410;-64
2022/05/24 14:39:20;;;;;;;0.50;0.50;;;;;;;;;;5076569;28;20824;-64
2022/05/24 14:41:47;;;;;;;1.00;0.60;;;;;;;;;;5076345;28;20884;-64
2022/05/24 14:44:24;;;;;;;2.10;0.70;;;;;;;;;;5076501;28;20454;-64
2022/05/24 14:46:51;;;;;;;3.80;0.70;;;;;;;;;;5076463;28;20435;-65
2022/05/24 14:49:17;;;;;;;0.60;0.60;;;;;;;;;;5076439;28;20409;-65
2022/05/24 14:51:53;;;;;;;0.63;0.63;;;;;;;;;;5076363;28;20504;-65
2022/05/24 14:54:20;;;;;;;3.33;0.80;;;;;;;;;;5076182;28;20429;-65
2022/05/24 14:56:47;;;;;;;0.60;0.60;;;;;;;;;;5076286;28;20913;-65
2022/05/24 14:59:13;;;;;;;0.77;0.77;;;;;;;;;;5076097;28;20416;-66
2022/05/24 15:01:40;;;;;;;0.50;0.50;;;;;;;;;;5076143;28;20533;-64
2022/05/24 15:04:07;;;;;;;0.60;0.60;;;;;;;;;;5076214;28;20419;-66
2022/05/24 15:06:34;;;;;;;0.70;0.60;;;;;;;;;;5076359;28;20416;-68
2022/05/24 15:17:22;;;;;;;2.67;0.70;;;;;;;;;;5075798;28;20896;-69
2022/05/24 15:19:48;;;;;;;3.83;0.70;;;;;;;;;;5075833;28;20407;-67
2022/05/24 15:22:14;;;;;;;0.63;0.63;;;;;;;;;;5074380;28;21130;-67
2022/05/24 15:24:42;;;;;;;1.33;0.60;;;;;;;;;;5074437;28;20506;-67
2022/05/24 15:27:09;;;;;;;7.30;0.80;;;;;;;;;;5075760;28;20411;-67
2022/05/24 15:29:35;;;;;;;2.33;0.60;;;;;;;;;;5075626;28;20510;-65
2022/05/24 15:32:03;;;;;;;0.87;0.50;;;;;;;;;;5075573;28;20396;-64
2022/05/24 15:34:29;;;;;;;0.67;0.67;;;;;;;;;;5075485;28;20407;-64
2022/05/24 15:36:55;;;;;;;1.90;0.63;;;;;;;;;;5075456;28;20407;-64
2022/05/24 15:39:21;;;;;;;2.43;0.87;;;;;;;;;;5075444;28;20429;-67
2022/05/24 15:41:47;;;;;;;0.60;0.60;;;;;;;;;;5075240;28;20873;-65
2022/05/24 15:44:13;;;;;;;3.13;0.60;;;;;;;;;;5075678;28;20539;-65
2022/05/24 15:46:40;;;;;;;0.70;0.70;;;;;;;;;;5075434;28;20488;-65
2022/05/24 15:49:06;;;;;;;2.47;0.70;;;;;;;;;;5075231;28;20915;-68
2022/05/24 15:51:32;;;;;;;1.27;0.70;;;;;;;;;;5075181;28;20402;-65
2022/05/24 15:53:58;;;;;;;4.53;0.87;;;;;;;;;;5075199;28;20413;-65
2022/05/24 15:56:24;;;;;;;0.70;0.70;;;;;;;;;;5073890;28;20432;-67
2022/05/24 15:58:50;;;;;;;1.13;0.50;;;;;;;;;;5075098;28;20433;-67